Preview of NWS' New Version of Forecast
This preview is not operational and should not be used for support decisions.

Terminal Aerodrome Forecast (TAF)

Issued by National Weather Service (NWS)

                            
000
FTAK31 PAFC 231723
TAFADL
TAF
PADL 231723Z 2318/2418 VRB06KT P6SM FEW100
     FM240000 22010KT P6SM SCT025 BKN050
     FM240600 VRB03KT P6SM FEW050=